KTHA/THA METAR and TAF weather

Enter ICAO airport designator
Station Type Date Time Source
KTHA METAR 2019/06/16 20:35 UTC NOAA

KTHA 162035Z AUTO 22007G13KT 10SM FEW042 30/21 A2996 RMK A01


Station Type Date Time Source
KTHA Decoded METAR 2019/06/16 20:35 UTC NOAA

Station name not available
Jun 16, 2019 - 04:35 PM EDT / 2019.06.16 2035 UTC
Wind: from the SW (220 degrees) at 8 MPH (7 KT) gusting to 15 MPH (13 KT):0
Visibility: 10 mile(s):0
Sky conditions: mostly clear
Temperature: 86 F (30 C)
Dew Point: 69 F (21 C)
Relative Humidity: 58%
Pressure (altimeter): 29.96 in. Hg (1014 hPa)
ob: KTHA 162035Z AUTO 22007G13KT 10SM FEW042 30/21 A2996 RMK A01
cycle: 20

Station Type Date Time Source
KTHA TAF UTC NOAA

Error!

Example: see airport list